sensor_id;sensor_type;location;lat;lon;timestamp;pressure;altitude;pressure_sealevel;temperature
73894;BMP280;62699;50.534;12.784;2022-08-19T00:04:11;95925.13;;;19.15
73894;BMP280;62699;50.534;12.784;2022-08-19T00:09:30;95916.22;;;18.98
73894;BMP280;62699;50.534;12.784;2022-08-19T00:14:50;95918.63;;;18.94
73894;BMP280;62699;50.534;12.784;2022-08-19T00:20:43;95914.84;;;19.06
73894;BMP280;62699;50.534;12.784;2022-08-19T00:26:04;95916.78;;;18.96
73894;BMP280;62699;50.534;12.784;2022-08-19T00:31:23;95901.94;;;18.89
73894;BMP280;62699;50.534;12.784;2022-08-19T00:36:44;95909.88;;;18.95
73894;BMP280;62699;50.534;12.784;2022-08-19T00:42:04;95905.63;;;18.84
73894;BMP280;62699;50.534;12.784;2022-08-19T00:47:25;95905.78;;;19.04
73894;BMP280;62699;50.534;12.784;2022-08-19T00:53:20;95903.63;;;18.85
73894;BMP280;62699;50.534;12.784;2022-08-19T00:58:41;95892.84;;;19.04
73894;BMP280;62699;50.534;12.784;2022-08-19T01:04:00;95881.97;;;19.31
73894;BMP280;62699;50.534;12.784;2022-08-19T01:09:40;95880.56;;;19.13
73894;BMP280;62699;50.534;12.784;2022-08-19T01:15:00;95888.47;;;19.62
73894;BMP280;62699;50.534;12.784;2022-08-19T01:20:21;95875.66;;;19.55
73894;BMP280;62699;50.534;12.784;2022-08-19T01:25:47;95868.13;;;19.73
73894;BMP280;62699;50.534;12.784;2022-08-19T01:31:11;95872.41;;;19.66
73894;BMP280;62699;50.534;12.784;2022-08-19T01:36:37;95871.09;;;19.40
73894;BMP280;62699;50.534;12.784;2022-08-19T01:42:02;95876.63;;;19.50
73894;BMP280;62699;50.534;12.784;2022-08-19T01:47:22;95879.50;;;19.69
73894;BMP280;62699;50.534;12.784;2022-08-19T01:52:44;95874.38;;;19.92
73894;BMP280;62699;50.534;12.784;2022-08-19T01:58:27;95879.72;;;20.00
73894;BMP280;62699;50.534;12.784;2022-08-19T02:03:49;95890.06;;;20.01
73894;BMP280;62699;50.534;12.784;2022-08-19T02:09:13;95871.97;;;20.06
73894;BMP280;62699;50.534;12.784;2022-08-19T02:14:34;95864.84;;;20.20
73894;BMP280;62699;50.534;12.784;2022-08-19T02:19:53;95875.47;;;20.26
73894;BMP280;62699;50.534;12.784;2022-08-19T02:25:16;95881.09;;;20.28
73894;BMP280;62699;50.534;12.784;2022-08-19T02:30:35;95897.91;;;20.24
73894;BMP280;62699;50.534;12.784;2022-08-19T02:35:55;95895.75;;;20.23
73894;BMP280;62699;50.534;12.784;2022-08-19T02:41:19;95888.75;;;20.29
73894;BMP280;62699;50.534;12.784;2022-08-19T02:46:39;95901.06;;;20.21
73894;BMP280;62699;50.534;12.784;2022-08-19T02:51:58;95884.09;;;20.22
73894;BMP280;62699;50.534;12.784;2022-08-19T02:57:18;95903.75;;;20.01
73894;BMP280;62699;50.534;12.784;2022-08-19T03:02:38;95910.06;;;20.04
73894;BMP280;62699;50.534;12.784;2022-08-19T03:07:57;95909.50;;;20.06
73894;BMP280;62699;50.534;12.784;2022-08-19T03:13:25;95910.41;;;19.81
73894;BMP280;62699;50.534;12.784;2022-08-19T03:18:45;95908.31;;;19.63
73894;BMP280;62699;50.534;12.784;2022-08-19T03:24:06;95913.59;;;19.78
73894;BMP280;62699;50.534;12.784;2022-08-19T03:29:40;95924.09;;;19.81
73894;BMP280;62699;50.534;12.784;2022-08-19T03:34:59;95915.31;;;19.83
73894;BMP280;62699;50.534;12.784;2022-08-19T03:40:19;95920.81;;;19.92
73894;BMP280;62699;50.534;12.784;2022-08-19T03:45:38;95928.88;;;19.90
73894;BMP280;62699;50.534;12.784;2022-08-19T03:51:06;95926.88;;;19.91
73894;BMP280;62699;50.534;12.784;2022-08-19T03:56:27;95921.28;;;19.98
73894;BMP280;62699;50.534;12.784;2022-08-19T04:01:47;95912.94;;;19.96
73894;BMP280;62699;50.534;12.784;2022-08-19T04:07:24;95906.31;;;19.90
73894;BMP280;62699;50.534;12.784;2022-08-19T04:12:44;95900.56;;;19.95
73894;BMP280;62699;50.534;12.784;2022-08-19T04:18:03;95904.97;;;19.81
73894;BMP280;62699;50.534;12.784;2022-08-19T04:23:26;95906.31;;;19.90
73894;BMP280;62699;50.534;12.784;2022-08-19T04:28:47;95897.06;;;19.85
73894;BMP280;62699;50.534;12.784;2022-08-19T04:34:09;95896.53;;;19.96
73894;BMP280;62699;50.534;12.784;2022-08-19T04:39:31;95912.88;;;19.77
73894;BMP280;62699;50.534;12.784;2022-08-19T04:45:18;95910.19;;;19.87
73894;BMP280;62699;50.534;12.784;2022-08-19T04:50:40;95910.19;;;19.96
73894;BMP280;62699;50.534;12.784;2022-08-19T04:56:13;95912.63;;;19.92
73894;BMP280;62699;50.534;12.784;2022-08-19T05:01:33;95905.69;;;19.91
73894;BMP280;62699;50.534;12.784;2022-08-19T05:06:52;95914.66;;;20.01
73894;BMP280;62699;50.534;12.784;2022-08-19T05:12:13;95927.91;;;19.95
73894;BMP280;62699;50.534;12.784;2022-08-19T05:17:34;95931.50;;;19.98
73894;BMP280;62699;50.534;12.784;2022-08-19T05:22:57;95941.44;;;20.13
73894;BMP280;62699;50.534;12.784;2022-08-19T05:28:18;95946.22;;;20.22
73894;BMP280;62699;50.534;12.784;2022-08-19T05:33:47;95970.22;;;20.14
73894;BMP280;62699;50.534;12.784;2022-08-19T05:39:10;95981.75;;;20.12
73894;BMP280;62699;50.534;12.784;2022-08-19T05:44:31;96008.94;;;20.10
73894;BMP280;62699;50.534;12.784;2022-08-19T05:49:51;96014.53;;;20.12
73894;BMP280;62699;50.534;12.784;2022-08-19T05:55:10;96024.06;;;20.21
73894;BMP280;62699;50.534;12.784;2022-08-19T06:00:45;96028.97;;;20.22
73894;BMP280;62699;50.534;12.784;2022-08-19T06:06:04;96037.16;;;20.22
73894;BMP280;62699;50.534;12.784;2022-08-19T06:11:46;96045.13;;;20.28
73894;BMP280;62699;50.534;12.784;2022-08-19T06:17:05;96055.56;;;20.22
73894;BMP280;62699;50.534;12.784;2022-08-19T06:22:26;96057.91;;;20.25
73894;BMP280;62699;50.534;12.784;2022-08-19T06:27:46;96062.66;;;20.25
73894;BMP280;62699;50.534;12.784;2022-08-19T06:33:25;96053.75;;;20.34
73894;BMP280;62699;50.534;12.784;2022-08-19T06:38:44;96036.38;;;20.29
73894;BMP280;62699;50.534;12.784;2022-08-19T06:44:05;96048.28;;;20.34
73894;BMP280;62699;50.534;12.784;2022-08-19T06:49:26;96046.41;;;20.27
73894;BMP280;62699;50.534;12.784;2022-08-19T06:54:49;96041.34;;;19.96
73894;BMP280;62699;50.534;12.784;2022-08-19T07:00:09;96051.66;;;20.42
73894;BMP280;62699;50.534;12.784;2022-08-19T07:05:57;96044.91;;;20.79
73894;BMP280;62699;50.534;12.784;2022-08-19T07:11:19;96064.91;;;20.45
73894;BMP280;62699;50.534;12.784;2022-08-19T07:16:40;96065.66;;;20.46
73894;BMP280;62699;50.534;12.784;2022-08-19T07:22:02;96063.22;;;20.50
73894;BMP280;62699;50.534;12.784;2022-08-19T07:27:22;96064.97;;;20.01
73894;BMP280;62699;50.534;12.784;2022-08-19T07:32:44;96058.25;;;19.85
73894;BMP280;62699;50.534;12.784;2022-08-19T07:38:03;96066.63;;;20.14
73894;BMP280;62699;50.534;12.784;2022-08-19T07:43:23;96075.03;;;19.99
73894;BMP280;62699;50.534;12.784;2022-08-19T07:48:54;96080.34;;;20.24
73894;BMP280;62699;50.534;12.784;2022-08-19T07:54:13;96075.31;;;20.20
73894;BMP280;62699;50.534;12.784;2022-08-19T07:59:38;96101.94;;;20.20
73894;BMP280;62699;50.534;12.784;2022-08-19T08:05:16;96100.03;;;19.95
73894;BMP280;62699;50.534;12.784;2022-08-19T08:10:55;96091.00;;;20.02
73894;BMP280;62699;50.534;12.784;2022-08-19T08:16:16;96094.91;;;19.99
73894;BMP280;62699;50.534;12.784;2022-08-19T08:21:35;96109.69;;;19.79
73894;BMP280;62699;50.534;12.784;2022-08-19T08:26:54;96120.44;;;19.94
73894;BMP280;62699;50.534;12.784;2022-08-19T08:32:15;96110.63;;;20.09
73894;BMP280;62699;50.534;12.784;2022-08-19T08:37:34;96105.22;;;20.18
73894;BMP280;62699;50.534;12.784;2022-08-19T08:49:01;96102.31;;;20.43
73894;BMP280;62699;50.534;12.784;2022-08-19T08:54:25;96108.03;;;20.64
73894;BMP280;62699;50.534;12.784;2022-08-19T08:59:48;96096.63;;;20.31
73894;BMP280;62699;50.534;12.784;2022-08-19T09:05:11;96106.25;;;20.49
73894;BMP280;62699;50.534;12.784;2022-08-19T09:10:38;96097.84;;;20.74
73894;BMP280;62699;50.534;12.784;2022-08-19T09:16:03;96108.03;;;20.11
73894;BMP280;62699;50.534;12.784;2022-08-19T09:21:25;96098.66;;;20.31
73894;BMP280;62699;50.534;12.784;2022-08-19T09:26:47;96089.81;;;20.40
73894;BMP280;62699;50.534;12.784;2022-08-19T09:32:16;96088.34;;;20.39
73894;BMP280;62699;50.534;12.784;2022-08-19T09:37:37;96091.19;;;19.87
73894;BMP280;62699;50.534;12.784;2022-08-19T09:42:56;96108.44;;;20.34
73894;BMP280;62699;50.534;12.784;2022-08-19T09:48:17;96104.19;;;20.40
73894;BMP280;62699;50.534;12.784;2022-08-19T09:53:38;96101.09;;;20.63
73894;BMP280;62699;50.534;12.784;2022-08-19T09:59:02;96108.63;;;20.72
73894;BMP280;62699;50.534;12.784;2022-08-19T10:04:22;96102.88;;;20.68
73894;BMP280;62699;50.534;12.784;2022-08-19T10:09:42;96106.50;;;20.44
73894;BMP280;62699;50.534;12.784;2022-08-19T10:15:01;96124.25;;;20.52
73894;BMP280;62699;50.534;12.784;2022-08-19T10:20:35;96122.75;;;20.15
73894;BMP280;62699;50.534;12.784;2022-08-19T10:25:54;96119.09;;;20.30
73894;BMP280;62699;50.534;12.784;2022-08-19T10:31:23;96122.59;;;19.96
73894;BMP280;62699;50.534;12.784;2022-08-19T10:36:43;96121.44;;;19.89
73894;BMP280;62699;50.534;12.784;2022-08-19T10:42:07;96114.66;;;20.08
73894;BMP280;62699;50.534;12.784;2022-08-19T10:47:28;96127.38;;;19.78
73894;BMP280;62699;50.534;12.784;2022-08-19T10:52:49;96129.28;;;19.51
73894;BMP280;62699;50.534;12.784;2022-08-19T10:58:17;96132.72;;;19.34
73894;BMP280;62699;50.534;12.784;2022-08-19T11:03:41;96142.63;;;19.64
73894;BMP280;62699;50.534;12.784;2022-08-19T11:09:01;96145.13;;;19.70
73894;BMP280;62699;50.534;12.784;2022-08-19T11:14:22;96141.63;;;20.21
73894;BMP280;62699;50.534;12.784;2022-08-19T11:19:43;96133.50;;;20.57
73894;BMP280;62699;50.534;12.784;2022-08-19T11:25:03;96128.28;;;20.88
73894;BMP280;62699;50.534;12.784;2022-08-19T11:30:23;96126.63;;;20.66
73894;BMP280;62699;50.534;12.784;2022-08-19T11:35:43;96127.34;;;20.66
73894;BMP280;62699;50.534;12.784;2022-08-19T11:41:05;96131.72;;;20.25
73894;BMP280;62699;50.534;12.784;2022-08-19T11:46:27;96145.25;;;20.06
73894;BMP280;62699;50.534;12.784;2022-08-19T11:51:48;96150.66;;;19.79
73894;BMP280;62699;50.534;12.784;2022-08-19T11:57:10;96149.38;;;19.80
73894;BMP280;62699;50.534;12.784;2022-08-19T12:02:29;96152.47;;;20.11
73894;BMP280;62699;50.534;12.784;2022-08-19T12:07:47;96155.59;;;20.51
73894;BMP280;62699;50.534;12.784;2022-08-19T12:13:06;96155.38;;;20.57
73894;BMP280;62699;50.534;12.784;2022-08-19T12:18:27;96159.50;;;19.87
73894;BMP280;62699;50.534;12.784;2022-08-19T12:23:47;96164.81;;;19.85
73894;BMP280;62699;50.534;12.784;2022-08-19T12:29:08;96170.03;;;20.08
73894;BMP280;62699;50.534;12.784;2022-08-19T12:34:31;96169.13;;;19.54
73894;BMP280;62699;50.534;12.784;2022-08-19T12:39:51;96153.44;;;19.37
73894;BMP280;62699;50.534;12.784;2022-08-19T12:45:12;96164.00;;;19.16
73894;BMP280;62699;50.534;12.784;2022-08-19T12:50:33;96157.84;;;19.08
73894;BMP280;62699;50.534;12.784;2022-08-19T12:55:57;96164.34;;;19.13
73894;BMP280;62699;50.534;12.784;2022-08-19T13:01:27;96160.28;;;19.21
73894;BMP280;62699;50.534;12.784;2022-08-19T13:06:49;96158.28;;;19.22
73894;BMP280;62699;50.534;12.784;2022-08-19T13:12:09;96163.31;;;19.33
73894;BMP280;62699;50.534;12.784;2022-08-19T13:17:33;96163.81;;;19.14
73894;BMP280;62699;50.534;12.784;2022-08-19T13:22:54;96156.44;;;19.49
73894;BMP280;62699;50.534;12.784;2022-08-19T13:28:13;96155.06;;;18.91
73894;BMP280;62699;50.534;12.784;2022-08-19T13:33:33;96161.56;;;19.45
73894;BMP280;62699;50.534;12.784;2022-08-19T13:38:52;96167.16;;;19.30
73894;BMP280;62699;50.534;12.784;2022-08-19T13:44:12;96172.97;;;18.77
73894;BMP280;62699;50.534;12.784;2022-08-19T13:49:31;96168.69;;;18.66
73894;BMP280;62699;50.534;12.784;2022-08-19T13:54:51;96170.88;;;18.92
73894;BMP280;62699;50.534;12.784;2022-08-19T14:00:13;96184.22;;;18.88
73894;BMP280;62699;50.534;12.784;2022-08-19T14:05:34;96179.47;;;18.49
73894;BMP280;62699;50.534;12.784;2022-08-19T14:10:54;96182.53;;;18.13
73894;BMP280;62699;50.534;12.784;2022-08-19T14:16:14;96185.50;;;18.40
73894;BMP280;62699;50.534;12.784;2022-08-19T14:21:33;96169.25;;;18.25
73894;BMP280;62699;50.534;12.784;2022-08-19T14:26:53;96173.94;;;18.32
73894;BMP280;62699;50.534;12.784;2022-08-19T14:32:12;96179.75;;;18.21
73894;BMP280;62699;50.534;12.784;2022-08-19T14:37:33;96178.47;;;18.37
73894;BMP280;62699;50.534;12.784;2022-08-19T14:42:54;96177.00;;;18.76
73894;BMP280;62699;50.534;12.784;2022-08-19T14:48:18;96172.34;;;18.94
73894;BMP280;62699;50.534;12.784;2022-08-19T14:53:38;96181.59;;;18.90
73894;BMP280;62699;50.534;12.784;2022-08-19T14:58:58;96175.69;;;18.84
73894;BMP280;62699;50.534;12.784;2022-08-19T15:04:19;96164.03;;;19.09
73894;BMP280;62699;50.534;12.784;2022-08-19T15:09:39;96167.50;;;19.34
73894;BMP280;62699;50.534;12.784;2022-08-19T15:14:58;96167.03;;;19.45
73894;BMP280;62699;50.534;12.784;2022-08-19T15:20:20;96163.31;;;18.83
73894;BMP280;62699;50.534;12.784;2022-08-19T15:25:41;96161.44;;;18.61
73894;BMP280;62699;50.534;12.784;2022-08-19T15:31:02;96161.97;;;18.92
73894;BMP280;62699;50.534;12.784;2022-08-19T15:36:21;96159.03;;;18.98
73894;BMP280;62699;50.534;12.784;2022-08-19T15:41:42;96152.66;;;19.20
73894;BMP280;62699;50.534;12.784;2022-08-19T15:47:01;96151.91;;;19.27
73894;BMP280;62699;50.534;12.784;2022-08-19T15:52:21;96146.09;;;19.23
73894;BMP280;62699;50.534;12.784;2022-08-19T15:57:40;96152.25;;;19.48
73894;BMP280;62699;50.534;12.784;2022-08-19T16:03:19;96158.81;;;19.28
73894;BMP280;62699;50.534;12.784;2022-08-19T16:08:59;96150.09;;;19.22
73894;BMP280;62699;50.534;12.784;2022-08-19T16:14:20;96158.53;;;19.16
73894;BMP280;62699;50.534;12.784;2022-08-19T16:19:40;96155.63;;;19.39
73894;BMP280;62699;50.534;12.784;2022-08-19T16:25:00;96162.19;;;19.11
73894;BMP280;62699;50.534;12.784;2022-08-19T16:30:19;96165.66;;;19.12
73894;BMP280;62699;50.534;12.784;2022-08-19T16:35:39;96166.03;;;19.33
73894;BMP280;62699;50.534;12.784;2022-08-19T16:40:58;96167.16;;;19.30
73894;BMP280;62699;50.534;12.784;2022-08-19T16:46:20;96159.50;;;19.04
73894;BMP280;62699;50.534;12.784;2022-08-19T16:51:40;96155.28;;;18.85
73894;BMP280;62699;50.534;12.784;2022-08-19T16:57:03;96155.28;;;18.53
73894;BMP280;62699;50.534;12.784;2022-08-19T17:02:24;96155.72;;;18.42
73894;BMP280;62699;50.534;12.784;2022-08-19T17:07:44;96161.81;;;18.18
73894;BMP280;62699;50.534;12.784;2022-08-19T17:13:05;96165.97;;;18.19
73894;BMP280;62699;50.534;12.784;2022-08-19T17:18:25;96171.38;;;18.34
73894;BMP280;62699;50.534;12.784;2022-08-19T17:23:44;96172.47;;;18.31
73894;BMP280;62699;50.534;12.784;2022-08-19T17:29:04;96162.97;;;18.39
73894;BMP280;62699;50.534;12.784;2022-08-19T17:34:23;96168.81;;;18.44
73894;BMP280;62699;50.534;12.784;2022-08-19T17:39:42;96158.78;;;18.46
73894;BMP280;62699;50.534;12.784;2022-08-19T17:45:02;96176.13;;;18.26
73894;BMP280;62699;50.534;12.784;2022-08-19T17:50:21;96165.56;;;18.30
73894;BMP280;62699;50.534;12.784;2022-08-19T17:55:41;96177.59;;;18.19
73894;BMP280;62699;50.534;12.784;2022-08-19T18:01:00;96195.44;;;18.13
73894;BMP280;62699;50.534;12.784;2022-08-19T18:06:20;96207.16;;;18.30
73894;BMP280;62699;50.534;12.784;2022-08-19T18:11:40;96210.91;;;18.50
73894;BMP280;62699;50.534;12.784;2022-08-19T18:17:02;96210.53;;;18.54
73894;BMP280;62699;50.534;12.784;2022-08-19T18:22:28;96218.47;;;18.74
73894;BMP280;62699;50.534;12.784;2022-08-19T18:27:53;96223.78;;;18.97
73894;BMP280;62699;50.534;12.784;2022-08-19T18:33:40;96218.16;;;18.95
73894;BMP280;62699;50.534;12.784;2022-08-19T18:38:59;96228.72;;;18.99
73894;BMP280;62699;50.534;12.784;2022-08-19T18:44:51;96227.38;;;19.07
73894;BMP280;62699;50.534;12.784;2022-08-19T18:50:28;96233.81;;;19.19
73894;BMP280;62699;50.534;12.784;2022-08-19T18:55:53;96245.16;;;19.16
73894;BMP280;62699;50.534;12.784;2022-08-19T19:01:16;96246.34;;;19.22
73894;BMP280;62699;50.534;12.784;2022-08-19T19:06:38;96253.66;;;19.20
73894;BMP280;62699;50.534;12.784;2022-08-19T19:12:24;96265.31;;;19.20
73894;BMP280;62699;50.534;12.784;2022-08-19T19:17:48;96258.53;;;19.21
73894;BMP280;62699;50.534;12.784;2022-08-19T19:23:08;96260.44;;;19.11
73894;BMP280;62699;50.534;12.784;2022-08-19T19:28:28;96252.38;;;19.21
73894;BMP280;62699;50.534;12.784;2022-08-19T19:33:48;96248.16;;;19.27
73894;BMP280;62699;50.534;12.784;2022-08-19T19:39:21;96251.81;;;19.22
73894;BMP280;62699;50.534;12.784;2022-08-19T19:44:55;96258.59;;;19.14
73894;BMP280;62699;50.534;12.784;2022-08-19T19:50:16;96248.06;;;19.10
73894;BMP280;62699;50.534;12.784;2022-08-19T19:55:36;96232.44;;;19.11
73894;BMP280;62699;50.534;12.784;2022-08-19T20:00:57;96222.03;;;19.17
73894;BMP280;62699;50.534;12.784;2022-08-19T20:06:45;96201.84;;;19.12
73894;BMP280;62699;50.534;12.784;2022-08-19T20:12:05;96223.06;;;18.97
73894;BMP280;62699;50.534;12.784;2022-08-19T20:17:25;96236.53;;;18.95
73894;BMP280;62699;50.534;12.784;2022-08-19T20:22:45;96252.00;;;18.92
73894;BMP280;62699;50.534;12.784;2022-08-19T20:28:10;96247.44;;;18.95
73894;BMP280;62699;50.534;12.784;2022-08-19T20:33:31;96265.09;;;18.94
73894;BMP280;62699;50.534;12.784;2022-08-19T20:39:03;96267.44;;;18.97
73894;BMP280;62699;50.534;12.784;2022-08-19T20:44:23;96273.59;;;19.05
73894;BMP280;62699;50.534;12.784;2022-08-19T20:49:43;96267.91;;;19.11
73894;BMP280;62699;50.534;12.784;2022-08-19T20:55:03;96258.81;;;19.08
73894;BMP280;62699;50.534;12.784;2022-08-19T21:00:24;96257.41;;;19.07
73894;BMP280;62699;50.534;12.784;2022-08-19T21:05:43;96255.03;;;19.04
73894;BMP280;62699;50.534;12.784;2022-08-19T21:11:05;96253.25;;;18.99
73894;BMP280;62699;50.534;12.784;2022-08-19T21:16:25;96258.72;;;18.99
73894;BMP280;62699;50.534;12.784;2022-08-19T21:21:44;96248.13;;;19.03
73894;BMP280;62699;50.534;12.784;2022-08-19T21:27:03;96246.34;;;18.98
73894;BMP280;62699;50.534;12.784;2022-08-19T21:32:23;96257.44;;;18.92
73894;BMP280;62699;50.534;12.784;2022-08-19T21:37:43;96255.44;;;18.92
73894;BMP280;62699;50.534;12.784;2022-08-19T21:43:02;96260.59;;;18.88
73894;BMP280;62699;50.534;12.784;2022-08-19T21:48:22;96253.47;;;18.85
73894;BMP280;62699;50.534;12.784;2022-08-19T21:53:41;96248.22;;;18.87
73894;BMP280;62699;50.534;12.784;2022-08-19T21:59:01;96252.00;;;18.92
73894;BMP280;62699;50.534;12.784;2022-08-19T22:04:20;96255.13;;;18.81
73894;BMP280;62699;50.534;12.784;2022-08-19T22:09:41;96253.00;;;18.72
73894;BMP280;62699;50.534;12.784;2022-08-19T22:15:02;96261.16;;;18.79
73894;BMP280;62699;50.534;12.784;2022-08-19T22:20:25;96262.97;;;18.84
73894;BMP280;62699;50.534;12.784;2022-08-19T22:25:46;96256.22;;;18.85
73894;BMP280;62699;50.534;12.784;2022-08-19T22:31:16;96265.84;;;18.86
73894;BMP280;62699;50.534;12.784;2022-08-19T22:36:36;96252.78;;;18.85
73894;BMP280;62699;50.534;12.784;2022-08-19T22:41:55;96257.50;;;18.84
73894;BMP280;62699;50.534;12.784;2022-08-19T22:47:15;96264.63;;;18.72
73894;BMP280;62699;50.534;12.784;2022-08-19T22:52:35;96257.53;;;18.77
73894;BMP280;62699;50.534;12.784;2022-08-19T22:58:00;96254.59;;;18.82
73894;BMP280;62699;50.534;12.784;2022-08-19T23:03:21;96257.16;;;18.80
73894;BMP280;62699;50.534;12.784;2022-08-19T23:08:43;96264.44;;;18.78
73894;BMP280;62699;50.534;12.784;2022-08-19T23:14:03;96249.34;;;18.77
73894;BMP280;62699;50.534;12.784;2022-08-19T23:19:23;96256.44;;;18.72
73894;BMP280;62699;50.534;12.784;2022-08-19T23:25:21;96252.66;;;18.75
73894;BMP280;62699;50.534;12.784;2022-08-19T23:30:43;96250.09;;;18.77
73894;BMP280;62699;50.534;12.784;2022-08-19T23:36:08;96246.78;;;18.79
73894;BMP280;62699;50.534;12.784;2022-08-19T23:41:51;96246.84;;;18.71
73894;BMP280;62699;50.534;12.784;2022-08-19T23:47:10;96237.94;;;18.63
73894;BMP280;62699;50.534;12.784;2022-08-19T23:52:30;96228.03;;;18.43
73894;BMP280;62699;50.534;12.784;2022-08-19T23:57:50;96229.22;;;18.10
